createdAt,value
2022-11-28T00:00:08.553Z,17.15
2022-11-28T00:02:41.944Z,16.75
2022-11-28T00:05:14.435Z,17.33
2022-11-28T00:07:43.355Z,17.02
2022-11-28T00:10:20.583Z,17.23
2022-11-28T00:12:50.803Z,17.13
2022-11-28T00:15:20.476Z,18.08
2022-11-28T00:17:50.957Z,17.08
2022-11-28T00:20:38.369Z,17.63
2022-11-28T00:23:07.179Z,19.80
2022-11-28T00:28:43.223Z,19.90
2022-11-28T00:31:23.184Z,20.13
2022-11-28T00:33:52.196Z,17.27
2022-11-28T00:36:24.350Z,23.23
2022-11-28T00:38:54.112Z,18.58
2022-11-28T00:41:27.313Z,18.80
2022-11-28T00:43:55.618Z,18.15
2022-11-28T00:46:24.464Z,21.42
2022-11-28T00:49:12.623Z,19.55
2022-11-28T00:51:40.718Z,18.15
2022-11-28T00:54:11.212Z,19.00
2022-11-28T00:56:45.794Z,17.38
2022-11-28T00:59:14.789Z,18.52
2022-11-28T01:02:04.019Z,18.40
2022-11-28T01:05:13.890Z,19.33
2022-11-28T01:08:01.832Z,16.80
2022-11-28T01:10:44.591Z,18.52
2022-11-28T01:13:26.719Z,18.30
2022-11-28T01:15:55.997Z,17.70
2022-11-28T01:18:23.922Z,19.27
2022-11-28T01:20:51.688Z,17.67
2022-11-28T01:23:20.085Z,18.27
2022-11-28T01:25:48.344Z,18.33
2022-11-28T01:28:16.113Z,18.15
2022-11-28T01:30:43.718Z,18.75
2022-11-28T01:33:11.643Z,16.80
2022-11-28T01:35:40.024Z,17.58
2022-11-28T01:38:09.051Z,19.30
2022-11-28T01:40:37.651Z,18.85
2022-11-28T01:43:10.342Z,17.92
2022-11-28T01:45:40.283Z,17.50
2022-11-28T01:48:09.366Z,17.00
2022-11-28T01:50:37.321Z,17.88
2022-11-28T01:53:07.406Z,17.98
2022-11-28T01:56:08.548Z,16.58
2022-11-28T01:58:40.173Z,17.65
2022-11-28T02:01:08.000Z,16.55
2022-11-28T02:03:46.494Z,17.63
2022-11-28T02:06:18.963Z,17.33
2022-11-28T02:08:46.979Z,16.83
2022-11-28T02:11:27.760Z,18.35
2022-11-28T02:14:29.869Z,19.67
2022-11-28T02:17:21.039Z,17.65
2022-11-28T02:20:00.638Z,18.80
2022-11-28T02:22:34.062Z,16.90
2022-11-28T02:25:18.826Z,18.77
2022-11-28T02:37:14.670Z,18.65
2022-11-28T02:49:53.014Z,19.50
2022-11-28T02:55:45.909Z,20.00
2022-11-28T02:58:24.305Z,19.60
2022-11-28T03:00:52.667Z,20.48
2022-11-28T03:03:57.831Z,20.25
2022-11-28T03:09:58.955Z,21.17
2022-11-28T03:12:36.642Z,20.98
2022-11-28T03:15:07.140Z,21.58
2022-11-28T03:17:56.280Z,20.92
2022-11-28T03:20:44.003Z,21.08
2022-11-28T03:23:17.603Z,20.55
2022-11-28T03:25:45.203Z,22.10
2022-11-28T03:28:29.845Z,21.48
2022-11-28T03:31:02.050Z,21.92
2022-11-28T03:33:41.245Z,22.75
2022-11-28T03:36:16.582Z,21.67
2022-11-28T03:38:49.619Z,21.85
2022-11-28T03:41:26.226Z,22.23
2022-11-28T03:43:56.929Z,22.98
2022-11-28T03:46:28.317Z,21.75
2022-11-28T03:48:59.255Z,24.17
2022-11-28T03:51:34.393Z,24.58
2022-11-28T03:54:25.344Z,23.13
2022-11-28T03:57:00.591Z,21.40
2022-11-28T03:59:37.375Z,21.27
2022-11-28T04:02:36.721Z,21.10
2022-11-28T04:05:24.444Z,18.85
2022-11-28T04:08:14.365Z,17.17
2022-11-28T04:11:03.248Z,16.38
2022-11-28T04:13:38.075Z,14.15
2022-11-28T04:16:11.795Z,9.40
2022-11-28T04:19:05.933Z,7.38
2022-11-28T04:21:55.870Z,7.63
2022-11-28T04:24:54.518Z,6.75
2022-11-28T04:27:44.597Z,5.93
2022-11-28T04:33:03.169Z,6.03
2022-11-28T04:35:53.165Z,6.10
2022-11-28T04:38:32.426Z,6.10
2022-11-28T04:41:19.341Z,7.40
2022-11-28T04:44:00.952Z,8.02
2022-11-28T04:46:38.041Z,8.82
2022-11-28T04:49:18.404Z,7.93
2022-11-28T04:52:05.921Z,9.35
2022-11-28T04:55:05.132Z,9.57
2022-11-28T04:57:50.644Z,9.02
2022-11-28T05:00:25.110Z,10.57
2022-11-28T05:03:03.750Z,10.07
2022-11-28T05:05:32.926Z,10.38
2022-11-28T05:11:03.270Z,12.48
2022-11-28T05:16:35.074Z,10.00
2022-11-28T05:29:35.243Z,9.77
2022-11-28T05:35:40.425Z,11.75
2022-11-28T05:59:31.990Z,8.02
2022-11-28T06:15:06.602Z,8.57
2022-11-28T06:17:36.957Z,9.02
2022-11-28T06:20:13.973Z,9.30
2022-11-28T06:36:43.363Z,9.13
2022-11-28T06:52:43.216Z,11.33
2022-11-28T06:55:10.629Z,11.10
2022-11-28T06:57:39.018Z,12.50
2022-11-28T07:00:07.356Z,13.13
2022-11-28T07:02:34.863Z,13.50
2022-11-28T07:05:07.774Z,13.80
2022-11-28T07:07:45.769Z,13.55
2022-11-28T07:10:22.062Z,13.52
2022-11-28T07:13:01.234Z,14.27
2022-11-28T07:15:31.941Z,13.23
2022-11-28T07:17:59.238Z,19.42
2022-11-28T07:20:26.525Z,15.25
2022-11-28T07:22:53.827Z,15.93
2022-11-28T07:25:21.999Z,12.57
2022-11-28T07:27:51.674Z,13.07
2022-11-28T07:30:20.340Z,12.70
2022-11-28T07:32:48.304Z,12.70
2022-11-28T07:35:15.769Z,12.63
2022-11-28T07:37:43.288Z,15.65
2022-11-28T07:40:10.877Z,13.60
2022-11-28T07:42:38.273Z,13.10
2022-11-28T07:45:06.828Z,14.02
2022-11-28T07:47:34.414Z,13.95
2022-11-28T07:50:04.232Z,14.82
2022-11-28T07:52:31.805Z,15.07
2022-11-28T07:54:59.329Z,14.73
2022-11-28T07:57:27.145Z,16.40
2022-11-28T07:59:54.581Z,16.75
2022-11-28T08:02:22.400Z,17.98
2022-11-28T08:04:53.972Z,15.70
2022-11-28T08:07:23.562Z,16.52
2022-11-28T08:09:51.245Z,16.85
2022-11-28T08:12:18.883Z,16.00
2022-11-28T08:14:46.790Z,16.38
2022-11-28T08:17:16.070Z,18.23
2022-11-28T08:19:43.569Z,18.85
2022-11-28T08:22:11.215Z,17.65
2022-11-28T08:24:41.091Z,21.00
2022-11-28T08:27:09.028Z,19.83
2022-11-28T08:29:36.602Z,19.52
2022-11-28T08:32:04.118Z,20.02
2022-11-28T08:34:31.719Z,18.20
2022-11-28T10:06:00.306Z,13.45
2022-11-28T10:08:45.471Z,13.73
2022-11-28T10:11:51.375Z,12.77
2022-11-28T10:14:58.441Z,10.55
2022-11-28T10:18:12.012Z,11.88
2022-11-28T10:20:57.200Z,14.88
2022-11-28T10:24:17.724Z,12.13
2022-11-28T10:27:00.932Z,12.90
2022-11-28T10:29:33.525Z,11.65
2022-11-28T10:32:03.050Z,11.35
2022-11-28T10:34:35.697Z,12.07
2022-11-28T10:37:25.555Z,11.35
2022-11-28T10:39:55.757Z,11.20
2022-11-28T10:45:41.958Z,14.80
2022-11-28T10:48:39.098Z,13.65
2022-11-28T10:52:03.934Z,15.65
2022-11-28T10:54:44.190Z,15.57
2022-11-28T10:57:29.805Z,15.75
2022-11-28T11:00:15.983Z,15.38
2022-11-28T11:02:48.529Z,15.18
2022-11-28T11:05:19.796Z,15.60
2022-11-28T11:07:52.783Z,16.20
2022-11-28T16:59:24.624Z,15.85
2022-11-28T17:01:57.313Z,15.60
2022-11-28T17:04:28.909Z,16.08
2022-11-28T17:07:01.948Z,15.60
2022-11-28T17:09:30.818Z,13.32
2022-11-28T17:12:06.284Z,11.55
2022-11-28T17:14:35.388Z,12.48
2022-11-28T17:17:10.875Z,14.60
2022-11-28T17:19:39.664Z,13.65
2022-11-28T17:22:08.416Z,13.23
2022-11-28T17:24:36.585Z,17.67
2022-11-28T17:27:08.018Z,13.00
2022-11-28T17:29:35.828Z,13.43
2022-11-28T17:32:06.662Z,12.00
2022-11-28T17:34:35.257Z,13.05
2022-11-28T17:37:05.338Z,12.13
2022-11-28T17:39:36.511Z,12.73
2022-11-28T17:42:07.865Z,11.77
2022-11-28T17:44:38.517Z,12.00
2022-11-28T17:47:07.456Z,12.93
2022-11-28T17:49:35.256Z,12.00
2022-11-28T17:52:06.381Z,12.30
2022-11-28T17:54:36.799Z,10.95
2022-11-28T17:57:09.215Z,12.50
2022-11-28T17:59:38.930Z,10.50
2022-11-28T18:02:07.049Z,13.15
2022-11-28T18:04:35.107Z,15.68
2022-11-28T18:07:03.184Z,13.15
2022-11-28T18:09:31.613Z,16.35
2022-11-28T18:12:07.162Z,14.85
2022-11-28T18:14:39.655Z,14.23
2022-11-28T18:17:07.789Z,14.35
2022-11-28T18:19:35.855Z,13.48
2022-11-28T18:22:03.926Z,14.15
2022-11-28T18:24:38.048Z,15.73
2022-11-28T18:27:06.694Z,14.57
2022-11-28T18:29:37.417Z,14.57
2022-11-28T18:32:15.179Z,13.93
2022-11-28T18:35:02.969Z,13.98
2022-11-28T18:37:30.869Z,13.48
2022-11-28T18:39:58.625Z,13.60
2022-11-28T18:42:26.784Z,15.52
2022-11-28T18:44:56.891Z,14.38
2022-11-28T18:47:26.329Z,12.68
2022-11-28T18:49:57.409Z,15.87
2022-11-28T18:52:43.521Z,13.60
2022-11-28T18:55:11.669Z,13.45
2022-11-28T18:57:41.385Z,14.48
2022-11-28T19:00:12.811Z,13.27
2022-11-28T19:02:43.672Z,13.40
2022-11-28T19:05:11.914Z,14.98
2022-11-28T19:07:44.507Z,13.70
2022-11-28T19:10:15.995Z,11.70
2022-11-28T19:12:45.967Z,14.00
2022-11-28T19:15:13.685Z,12.77
2022-11-28T19:17:41.258Z,13.95
2022-11-28T19:20:10.024Z,13.85
2022-11-28T19:22:40.650Z,12.98
2022-11-28T19:25:08.815Z,12.30
2022-11-28T19:27:36.587Z,13.40
2022-11-28T19:30:05.959Z,15.52
2022-11-28T19:32:33.468Z,13.82
2022-11-28T19:35:08.267Z,11.93
2022-11-28T19:37:38.988Z,13.10
2022-11-28T19:40:11.215Z,13.38
2022-11-28T19:42:40.521Z,11.57
2022-11-28T19:45:09.239Z,12.98
2022-11-28T19:47:37.143Z,12.63
2022-11-28T19:50:05.047Z,12.55
2022-11-28T19:52:32.555Z,10.77
2022-11-28T19:54:59.934Z,11.88
2022-11-28T19:57:27.666Z,11.23
2022-11-28T19:59:55.120Z,10.73
2022-11-28T20:02:23.574Z,11.15
2022-11-28T20:04:51.061Z,11.48
2022-11-28T20:07:18.334Z,9.98
2022-11-28T20:09:45.928Z,11.73
2022-11-28T20:12:13.468Z,12.90
2022-11-28T20:14:41.045Z,10.48
2022-11-28T20:17:10.888Z,10.25
2022-11-28T20:19:38.482Z,11.10
2022-11-28T20:22:05.684Z,11.70
2022-11-28T20:24:33.075Z,11.65
2022-11-28T20:27:00.443Z,12.25
2022-11-28T20:29:29.054Z,12.32
2022-11-28T20:31:57.496Z,10.57
2022-11-28T20:34:28.838Z,11.32
2022-11-28T20:36:58.404Z,11.10
2022-11-28T20:39:26.082Z,10.70
2022-11-28T20:41:53.569Z,11.50
2022-11-28T20:44:29.761Z,11.55
2022-11-28T20:46:57.352Z,12.45
2022-11-28T20:49:25.255Z,11.43
2022-11-28T20:51:52.842Z,11.50
2022-11-28T20:54:23.288Z,11.77
2022-11-28T20:59:42.871Z,11.40
2022-11-28T21:02:11.703Z,10.00
2022-11-28T21:04:39.018Z,10.68
2022-11-28T21:07:06.342Z,10.93
2022-11-28T21:09:34.293Z,9.77
2022-11-28T21:12:01.627Z,10.52
2022-11-28T21:14:29.392Z,11.23
2022-11-28T21:16:57.997Z,10.80
2022-11-28T21:19:25.558Z,11.88
2022-11-28T21:21:53.291Z,12.55
2022-11-28T21:24:20.886Z,11.82
2022-11-28T21:26:53.385Z,12.60
2022-11-28T21:29:21.668Z,11.35
2022-11-28T21:31:49.646Z,11.85
2022-11-28T21:34:17.778Z,11.80
2022-11-28T21:36:46.097Z,11.65
2022-11-28T21:39:15.669Z,11.18
2022-11-28T21:41:43.003Z,10.80
2022-11-28T21:44:10.556Z,11.20
2022-11-28T21:46:38.043Z,12.38
2022-11-28T21:49:05.764Z,11.45
2022-11-28T21:51:33.221Z,11.05
2022-11-28T21:54:02.090Z,10.18
2022-11-28T21:56:32.472Z,10.82
2022-11-28T21:59:01.818Z,10.27
2022-11-28T22:01:29.314Z,11.05
2022-11-28T22:04:02.421Z,9.80
2022-11-28T22:06:30.887Z,10.13
2022-11-28T22:08:58.785Z,9.48
2022-11-28T22:11:26.137Z,9.15
2022-11-28T22:13:53.597Z,8.68
2022-11-28T22:16:28.810Z,10.52
2022-11-28T22:18:58.613Z,11.13
2022-11-28T22:21:51.422Z,12.05
2022-11-28T22:24:16.479Z,11.90
2022-11-28T22:26:44.146Z,11.68
2022-11-28T22:29:11.878Z,10.32
2022-11-28T22:31:39.478Z,10.05
2022-11-28T22:34:06.835Z,10.20
2022-11-28T22:36:34.449Z,8.05
2022-11-28T22:39:02.840Z,11.25
2022-11-28T22:50:52.574Z,10.55
2022-11-28T22:56:32.250Z,9.55
2022-11-28T22:59:00.901Z,10.77
2022-11-28T23:07:57.462Z,8.63
2022-11-28T23:10:25.541Z,10.10
2022-11-28T23:12:54.116Z,10.52
2022-11-28T23:15:22.397Z,9.65
2022-11-28T23:17:50.235Z,9.07
2022-11-28T23:20:18.368Z,9.50
2022-11-28T23:22:46.187Z,10.27
2022-11-28T23:25:13.628Z,10.95
2022-11-28T23:27:41.255Z,10.88
2022-11-28T23:30:10.978Z,10.13
2022-11-28T23:32:41.903Z,9.95
2022-11-28T23:35:09.873Z,10.00
2022-11-28T23:37:40.018Z,10.73
2022-11-28T23:40:08.268Z,9.63
2022-11-28T23:42:37.505Z,8.68
2022-11-28T23:45:07.754Z,9.65
2022-11-28T23:47:35.699Z,9.95
2022-11-28T23:50:04.298Z,9.95
2022-11-28T23:52:32.140Z,10.52
2022-11-28T23:55:00.602Z,10.20
2022-11-28T23:57:34.855Z,8.93
